createdAt,value
2023-05-22T00:04:33.202Z,77.39
2023-05-22T00:09:35.503Z,75.18
2023-05-22T00:14:37.824Z,77.15
2023-05-22T00:19:40.493Z,75.42
2023-05-22T00:24:42.797Z,75.15
2023-05-22T00:29:44.923Z,76.69
2023-05-22T00:34:47.266Z,78.00
2023-05-22T00:39:49.975Z,76.65
2023-05-22T00:44:52.325Z,76.45
2023-05-22T00:49:54.830Z,75.85
2023-05-22T00:54:57.112Z,74.32
2023-05-22T01:00:00.878Z,73.88
2023-05-22T01:05:07.066Z,73.25
2023-05-22T01:10:10.065Z,73.01
2023-05-22T01:15:33.029Z,72.73
2023-05-22T01:20:55.252Z,73.42
2023-05-22T01:26:18.106Z,72.60
2023-05-22T01:31:26.089Z,72.29
2023-05-22T01:36:32.874Z,71.17
2023-05-22T01:41:35.656Z,72.29
2023-05-22T01:46:38.898Z,71.80
2023-05-22T01:51:58.102Z,69.69
2023-05-22T01:57:22.405Z,71.44
2023-05-22T02:02:26.672Z,72.16
2023-05-22T02:07:32.068Z,72.62
2023-05-22T02:12:35.605Z,72.30
2023-05-22T02:17:44.587Z,72.61
2023-05-22T02:22:48.367Z,73.65
2023-05-22T02:27:50.695Z,72.83
2023-05-22T02:32:53.092Z,72.72
2023-05-22T02:37:55.575Z,74.78
2023-05-22T02:42:57.921Z,73.76
2023-05-22T02:48:03.883Z,74.16
2023-05-22T02:53:08.412Z,75.29
2023-05-22T02:58:12.240Z,73.60
2023-05-22T03:03:14.636Z,74.80
2023-05-22T03:08:17.191Z,74.47
2023-05-22T03:13:19.756Z,73.10
2023-05-22T03:18:22.051Z,73.84
2023-05-22T03:23:25.361Z,73.24
2023-05-22T03:28:28.234Z,73.80
2023-05-22T03:33:30.558Z,74.96
2023-05-22T03:38:32.892Z,73.95
2023-05-22T03:43:36.287Z,74.72
2023-05-22T03:48:39.515Z,76.41
2023-05-22T03:53:41.885Z,75.19
2023-05-22T03:58:44.043Z,74.99
2023-05-22T04:03:46.424Z,76.10
2023-05-22T04:08:49.467Z,75.51
2023-05-22T04:13:51.766Z,76.09
2023-05-22T04:18:54.047Z,74.31
2023-05-22T04:23:56.470Z,75.44
2023-05-22T04:28:59.502Z,74.64
2023-05-22T04:34:03.979Z,74.34
2023-05-22T04:39:06.969Z,73.30
2023-05-22T04:44:09.393Z,72.35
2023-05-22T04:49:11.777Z,71.52
2023-05-22T04:54:14.242Z,60.39
2023-05-22T04:59:16.905Z,59.54
2023-05-22T05:04:19.802Z,58.42
2023-05-22T05:09:22.171Z,53.69
2023-05-22T05:14:25.603Z,56.08
2023-05-22T05:19:28.086Z,56.04
2023-05-22T05:24:30.487Z,53.07
2023-05-22T05:29:33.155Z,54.39
2023-05-22T05:34:48.761Z,54.26
2023-05-22T05:40:06.603Z,62.23
2023-05-22T05:45:11.727Z,64.29
2023-05-22T05:50:15.680Z,64.01
2023-05-22T05:55:18.966Z,63.48
2023-05-22T06:00:22.635Z,64.22
2023-05-22T06:05:27.030Z,64.51
2023-05-22T06:10:37.517Z,66.05
2023-05-22T06:15:48.445Z,66.56
2023-05-22T06:20:50.664Z,65.30
2023-05-22T06:25:52.856Z,63.03
2023-05-22T06:30:55.519Z,62.97
2023-05-22T06:35:58.984Z,63.10
2023-05-22T06:41:01.568Z,62.29
2023-05-22T06:46:04.314Z,62.48
2023-05-22T06:51:06.870Z,60.82
2023-05-22T06:56:09.445Z,62.09
2023-05-22T07:01:24.708Z,62.30
2023-05-22T07:06:41.940Z,61.98
2023-05-22T07:11:45.435Z,62.05
2023-05-22T07:16:50.680Z,61.48
2023-05-22T07:22:00.273Z,62.81
2023-05-22T07:27:04.535Z,61.05
2023-05-22T07:32:09.351Z,61.27
2023-05-22T07:37:14.171Z,61.80
2023-05-22T07:42:17.909Z,61.81
2023-05-22T07:47:26.489Z,60.68
2023-05-22T07:52:29.361Z,61.56
2023-05-22T07:57:32.931Z,61.95
2023-05-22T08:02:43.049Z,60.74
2023-05-22T08:07:45.664Z,61.44
2023-05-22T08:12:47.969Z,61.37
2023-05-22T08:17:50.305Z,61.20
2023-05-22T08:22:55.124Z,61.29
2023-05-22T08:27:57.622Z,62.36
2023-05-22T08:32:59.994Z,62.44
2023-05-22T08:38:02.218Z,62.16
2023-05-22T08:43:06.592Z,62.17
2023-05-22T08:48:13.590Z,61.90
2023-05-22T08:53:16.924Z,60.87
2023-05-22T08:58:19.747Z,60.69
2023-05-22T09:03:23.210Z,60.39
2023-05-22T09:08:26.344Z,60.92
2023-05-22T09:13:31.090Z,58.48
2023-05-22T09:18:33.382Z,58.49
2023-05-22T09:23:35.758Z,59.71
2023-05-22T09:28:38.043Z,58.01
2023-05-22T09:33:40.552Z,56.30
2023-05-22T09:38:42.908Z,54.56
2023-05-22T09:43:51.496Z,56.28
2023-05-22T09:48:54.690Z,54.13
2023-05-22T09:54:03.998Z,52.03
2023-05-22T09:59:09.897Z,53.46
2023-05-22T10:04:14.420Z,57.19
2023-05-22T10:09:19.788Z,55.77
2023-05-22T10:14:23.648Z,53.22
2023-05-22T10:19:27.923Z,53.16
2023-05-22T10:24:30.823Z,55.10
2023-05-22T10:29:45.255Z,53.24
2023-05-22T10:34:50.825Z,54.45
2023-05-22T10:40:08.281Z,55.03
2023-05-22T10:45:14.866Z,53.04
2023-05-22T10:50:18.432Z,50.39
2023-05-22T10:55:23.426Z,51.55
2023-05-22T11:00:26.111Z,50.20
2023-05-22T11:05:34.641Z,51.27
2023-05-22T11:10:59.011Z,51.16
2023-05-22T11:16:06.335Z,49.95
2023-05-22T11:21:11.848Z,50.08
2023-05-22T11:26:25.587Z,47.81
2023-05-22T11:31:30.906Z,51.28
2023-05-22T11:36:33.428Z,49.12
2023-05-22T11:41:36.979Z,51.46
2023-05-22T11:46:40.056Z,51.63
2023-05-22T11:51:42.860Z,49.76
2023-05-22T11:56:46.412Z,48.87
2023-05-22T12:01:51.088Z,49.38
2023-05-22T12:06:55.069Z,45.56
2023-05-22T12:11:58.421Z,48.73
2023-05-22T12:17:04.437Z,50.28
2023-05-22T12:22:07.105Z,49.76
2023-05-22T12:27:13.798Z,49.51
2023-05-22T12:32:18.180Z,50.09
2023-05-22T12:37:28.355Z,49.98
2023-05-22T12:42:31.146Z,50.15
2023-05-22T12:52:59.659Z,49.48
2023-05-22T12:58:03.517Z,52.60
2023-05-22T13:03:06.875Z,51.31
2023-05-22T13:08:09.214Z,50.87
2023-05-22T13:13:11.478Z,52.01
2023-05-22T13:18:13.950Z,54.24
2023-05-22T13:23:16.212Z,52.19
2023-05-22T13:28:18.682Z,50.37
2023-05-22T13:33:21.225Z,52.78
2023-05-22T13:38:23.497Z,50.03
2023-05-22T13:43:26.123Z,50.13
2023-05-22T13:48:28.380Z,49.62
2023-05-22T13:53:30.763Z,48.65
2023-05-22T13:58:33.016Z,48.20
2023-05-22T14:03:35.380Z,50.54
2023-05-22T14:08:37.612Z,48.35
2023-05-22T14:13:39.878Z,49.56
2023-05-22T14:18:42.069Z,47.73
2023-05-22T14:23:44.508Z,48.25
2023-05-22T14:28:46.961Z,48.38
2023-05-22T14:33:49.286Z,48.56
2023-05-22T14:38:51.605Z,46.03
2023-05-22T14:43:53.754Z,49.30
2023-05-22T14:48:55.921Z,49.22
2023-05-22T14:53:58.242Z,48.19
2023-05-22T14:59:00.596Z,48.40
2023-05-22T15:04:02.926Z,48.22
2023-05-22T15:09:05.217Z,48.51
2023-05-22T15:14:07.388Z,49.59
2023-05-22T15:19:09.749Z,48.23
2023-05-22T15:24:12.104Z,48.59
2023-05-22T15:29:14.381Z,47.44
2023-05-22T15:34:16.683Z,46.17
2023-05-22T15:39:20.185Z,44.82
2023-05-22T15:44:22.439Z,44.84
2023-05-22T15:49:24.713Z,47.00
2023-05-22T15:54:26.993Z,44.70
2023-05-22T15:59:29.226Z,45.19
2023-05-22T16:04:31.758Z,47.11
2023-05-22T16:09:35.103Z,45.27
2023-05-22T16:14:40.558Z,46.20
2023-05-22T16:19:43.473Z,47.14
2023-05-22T16:24:45.766Z,47.06
2023-05-22T16:29:48.014Z,46.58
2023-05-22T16:34:50.285Z,46.72
2023-05-22T16:39:52.912Z,47.67
2023-05-22T16:44:55.199Z,48.88
2023-05-22T16:49:57.461Z,47.97
2023-05-22T16:55:01.320Z,47.10
2023-05-22T17:00:04.103Z,47.98
2023-05-22T17:05:07.372Z,48.28
2023-05-22T17:10:10.350Z,48.08
2023-05-22T17:15:12.921Z,49.78
2023-05-22T17:20:15.167Z,49.76
2023-05-22T17:25:21.360Z,48.75
2023-05-22T17:30:23.839Z,49.86
2023-05-22T17:35:26.347Z,48.94
2023-05-22T17:40:43.865Z,52.73
2023-05-22T17:45:50.045Z,51.98
2023-05-22T17:50:52.942Z,51.70
2023-05-22T17:55:55.364Z,52.16
2023-05-22T18:00:57.748Z,53.21
2023-05-22T18:06:00.093Z,52.12
2023-05-22T18:11:02.272Z,53.40
2023-05-22T18:16:04.725Z,52.22
2023-05-22T18:21:07.001Z,53.63
2023-05-22T18:26:09.734Z,53.98
2023-05-22T18:31:12.105Z,54.04
2023-05-22T18:36:14.455Z,55.13
2023-05-22T18:41:16.714Z,55.64
2023-05-22T18:52:03.682Z,56.80
2023-05-22T18:57:06.030Z,56.71
2023-05-22T19:02:08.306Z,57.41
2023-05-22T19:07:10.785Z,60.29
2023-05-22T19:12:13.028Z,57.75
2023-05-22T19:17:15.991Z,57.04
2023-05-22T19:22:18.644Z,57.55
2023-05-22T19:27:20.948Z,57.58
2023-05-22T19:32:23.247Z,57.82
2023-05-22T19:37:25.567Z,57.78
2023-05-22T19:42:27.846Z,57.73
2023-05-22T19:47:30.402Z,58.89
2023-05-22T19:52:32.626Z,60.15
2023-05-22T19:57:34.889Z,60.59
2023-05-22T20:02:38.387Z,60.58
2023-05-22T20:07:43.631Z,61.76
2023-05-22T20:12:46.058Z,61.50
2023-05-22T20:17:51.816Z,61.60
2023-05-22T20:22:55.032Z,62.17
2023-05-22T20:27:57.387Z,64.48
2023-05-22T20:32:59.681Z,64.73
2023-05-22T20:38:03.324Z,65.24
2023-05-22T20:43:05.675Z,65.75
2023-05-22T20:48:08.015Z,66.40
2023-05-22T20:53:10.268Z,66.20
2023-05-22T20:58:13.809Z,66.69
2023-05-22T21:03:16.978Z,66.78
2023-05-22T21:08:19.290Z,67.45
2023-05-22T21:13:21.584Z,66.86
2023-05-22T21:18:24.362Z,67.70
2023-05-22T21:23:26.686Z,65.61
2023-05-22T21:28:29.287Z,67.48
2023-05-22T21:33:31.621Z,68.15
2023-05-22T21:38:34.008Z,68.96
2023-05-22T21:43:36.244Z,69.19
2023-05-22T21:48:38.484Z,68.53
2023-05-22T21:53:41.132Z,67.76
2023-05-22T21:58:43.381Z,69.12
2023-05-22T22:03:45.836Z,69.06
2023-05-22T22:08:48.089Z,67.90
2023-05-22T22:13:50.362Z,70.88
2023-05-22T22:18:52.716Z,69.85
2023-05-22T22:23:55.553Z,66.64
2023-05-22T22:28:57.995Z,71.91
2023-05-22T22:34:00.277Z,71.55
2023-05-22T22:39:02.941Z,70.02
2023-05-22T22:44:05.260Z,68.99
2023-05-22T22:49:08.892Z,72.22
2023-05-22T22:54:11.361Z,70.07
2023-05-22T22:59:13.934Z,71.64
2023-05-22T23:04:16.327Z,70.11
2023-05-22T23:09:18.663Z,71.03
2023-05-22T23:14:20.928Z,72.68
2023-05-22T23:19:23.214Z,73.12
2023-05-22T23:24:25.635Z,77.44
2023-05-22T23:29:27.937Z,76.99
2023-05-22T23:34:30.221Z,76.97
2023-05-22T23:39:32.461Z,72.52
2023-05-22T23:44:34.692Z,76.03
2023-05-22T23:49:36.968Z,71.56
2023-05-22T23:54:39.233Z,72.99
2023-05-22T23:59:43.691Z,73.89
